Search for the current weather situation

Metar

Metar
TNCE 211455Z AUTO 07011KT 040V110 //// // ///////// 30/25 Q1015 RE//
Decoded Metar

TAF

TAF
TNCE 211455Z AUTO 07011KT 040V110 //// // ///////// 30/25 Q1015 RE//
Decoded TAF
Top